Pagina principale
METAR-TAF:

METAR-TAF

Aeroporti :

Aeroporto di Foggia

Foggia, Italia

latitudine: 41-25-58N, longitudine: 015-32-06E, altezza: 81 m

Osservazione

Il bollettino è stato emesso 3 ore e 34 minuti fa, alle 15:50 UTC
Vento 14 kt da nord/nord-ovest
Temperature 22°C
Umidità 31%
Pressione 1017 hPa
Visibilità 10 km o più
Nubi sparse ad un'altezza di 5000 ft

METAR: LIBF 231550Z 34014KT 9999 SCT050 22/04 Q1017

Ora: 21:24 (19:24 UTC)


TAF: mancante

Osservazioni e previsioni meteorologiche di più di 4000 aeroporti (messaggi METAR e TAF).

Le stazioni disponibili sono rappresentate dai dischi gialli e rossi sulla carta.

Puntare il mouse per vedere il nome della stazione.

Clicca sopra per visualizzare le osservazioni e previsioni meteorologiche.

Per cambiare la mappa : fare clic sui pulsanti verdi con una croce nera per ingrandire, il pulsante verde con un trattino per diminuire, o sulla freccia verde per le mappe adiacenti.


METAR-TAF: